Time;durP1;ratioP1;P1;durP2;ratioP2;P2;SDS_P1;SDS_P2;PMS_P1;PMS_P2;Temp;Humidity;BMP_temperature;BMP_pressure;BME280_temperature;BME280_humidity;BME280_pressure;Samples;Min_cycle;Max_cycle;Signal;HPM_P1;HPM_P2
2022/03/23 05:10:23;;;;;;;13.60;8.20;;;2.00;98.00;;;;;;5663950;23;20080;-83
2022/03/23 05:12:51;;;;;;;11.85;7.45;;;2.40;96.80;;;;;;4893561;29;20488;-81
2022/03/23 05:15:19;;;;;;;13.85;7.88;;;2.60;96.50;;;;;;4883852;29;20048;-83
2022/03/23 05:17:46;;;;;;;13.52;8.13;;;2.80;96.20;;;;;;4898551;29;20053;-82
2022/03/23 05:20:15;;;;;;;14.07;8.20;;;2.90;95.80;;;;;;4908771;29;20494;-86
2022/03/23 05:22:42;;;;;;;13.93;8.90;;;2.60;95.90;;;;;;4898971;29;20473;-85
2022/03/23 05:25:10;;;;;;;17.63;9.55;;;2.70;95.70;;;;;;4898742;29;20048;-87
2022/03/23 05:27:41;;;;;;;15.48;8.60;;;2.60;95.70;;;;;;4898941;29;20413;-89
2022/03/23 05:30:12;;;;;;;13.18;8.68;;;2.60;96.00;;;;;;4899715;29;20084;-90
2022/03/23 05:32:40;;;;;;;13.50;8.60;;;2.60;95.70;;;;;;4899753;29;20088;-87
2022/03/23 05:35:09;;;;;;;13.35;8.38;;;2.50;95.90;;;;;;4898268;29;20049;-87
2022/03/23 05:37:36;;;;;;;13.70;8.18;;;2.40;95.70;;;;;;4899545;29;20517;-88
2022/03/23 05:40:04;;;;;;;14.77;8.25;;;2.40;96.00;;;;;;4898609;29;20139;-88
2022/03/23 05:42:32;;;;;;;16.63;8.98;;;2.40;96.10;;;;;;4899492;29;20071;-87
2022/03/23 05:45:00;;;;;;;13.95;9.05;;;2.40;96.30;;;;;;4899312;29;20128;-88
2022/03/23 05:47:27;;;;;;;14.48;8.75;;;2.40;96.00;;;;;;4899607;29;20131;-88
2022/03/23 05:49:54;;;;;;;14.30;9.15;;;2.30;96.40;;;;;;4898843;29;20490;-87
2022/03/23 05:52:21;;;;;;;14.55;8.50;;;2.20;96.90;;;;;;4899373;29;20055;-88
2022/03/23 05:54:49;;;;;;;12.52;8.07;;;2.50;96.00;;;;;;4898523;29;20076;-88
2022/03/23 05:57:16;;;;;;;13.77;8.15;;;2.80;94.70;;;;;;4898419;29;20128;-88
2022/03/23 05:59:43;;;;;;;13.35;8.10;;;3.00;94.20;;;;;;4897847;29;20084;-87
2022/03/23 06:02:11;;;;;;;13.38;8.63;;;3.10;93.40;;;;;;4882931;29;20156;-86
2022/03/23 06:04:38;;;;;;;16.05;8.90;;;3.20;93.70;;;;;;4879400;29;20053;-88
2022/03/23 06:07:06;;;;;;;13.20;8.43;;;3.10;93.90;;;;;;4880484;29;20124;-87
2022/03/23 06:09:33;;;;;;;14.88;8.25;;;3.10;93.60;;;;;;4879183;29;20084;-88
2022/03/23 06:12:01;;;;;;;12.88;8.27;;;3.20;93.20;;;;;;4880190;29;20069;-87
2022/03/23 06:14:28;;;;;;;14.45;8.63;;;3.30;93.40;;;;;;4879517;29;20077;-87
2022/03/23 06:16:55;;;;;;;13.63;8.70;;;3.20;94.30;;;;;;4879398;29;20088;-87
2022/03/23 06:19:23;;;;;;;13.55;8.35;;;3.20;94.40;;;;;;4880987;29;20113;-86
2022/03/23 06:21:50;;;;;;;15.75;8.70;;;3.20;94.80;;;;;;4881382;29;20440;-86
2022/03/23 06:24:17;;;;;;;13.93;8.88;;;3.30;94.70;;;;;;4880493;29;20136;-88
2022/03/23 06:26:44;;;;;;;12.90;8.23;;;3.30;94.50;;;;;;4880514;29;20414;-87
2022/03/23 06:29:12;;;;;;;16.92;9.38;;;3.20;95.00;;;;;;4880240;29;20148;-87
2022/03/23 06:31:39;;;;;;;15.90;8.68;;;3.30;95.00;;;;;;4880493;29;20140;-86
2022/03/23 06:34:07;;;;;;;14.30;9.15;;;3.30;95.10;;;;;;4880267;29;20128;-88
2022/03/23 06:36:36;;;;;;;17.27;10.20;;;3.50;94.90;;;;;;4882044;29;20128;-88
2022/03/23 06:39:04;;;;;;;18.45;10.00;;;3.50;94.80;;;;;;4879545;29;20104;-88
2022/03/23 06:41:32;;;;;;;18.42;9.80;;;3.50;94.70;;;;;;4881544;29;20092;-86
2022/03/23 06:43:59;;;;;;;16.63;10.35;;;3.50;94.60;;;;;;4879962;29;20542;-87
2022/03/23 06:46:26;;;;;;;14.30;8.77;;;3.60;94.50;;;;;;4881417;29;20093;-87
2022/03/23 06:48:54;;;;;;;15.73;9.52;;;3.60;94.50;;;;;;4883066;29;20053;-86
2022/03/23 06:51:21;;;;;;;19.35;10.77;;;3.60;94.50;;;;;;4864014;29;20053;-86
2022/03/23 06:53:49;;;;;;;16.27;10.43;;;3.60;94.60;;;;;;4881338;29;20144;-88
2022/03/23 06:56:16;;;;;;;18.27;9.70;;;3.40;94.60;;;;;;4894044;29;20081;-86
2022/03/23 06:58:43;;;;;;;15.35;9.73;;;3.50;94.40;;;;;;4889699;29;20080;-87
2022/03/23 07:01:11;;;;;;;17.83;10.18;;;3.60;94.30;;;;;;4881600;29;20547;-87
2022/03/23 07:03:38;;;;;;;14.95;9.65;;;3.70;93.60;;;;;;4883418;29;20132;-87
2022/03/23 07:06:05;;;;;;;18.30;10.55;;;3.80;93.50;;;;;;4887762;29;20225;-87
2022/03/23 07:11:18;;;;;;;;;;;3.90;92.90;;;;;;4897775;29;20064;-86
2022/03/23 07:13:45;;;;;;;18.00;10.60;;;4.00;92.60;;;;;;4884230;29;19923;-87
2022/03/23 07:16:12;;;;;;;19.15;10.10;;;4.00;92.90;;;;;;4884192;29;20132;-87
2022/03/23 07:18:39;;;;;;;17.55;10.07;;;4.10;92.60;;;;;;4884713;29;20151;-86
2022/03/23 07:21:06;;;;;;;16.60;9.52;;;4.20;92.20;;;;;;4887827;29;20089;-87
2022/03/23 07:23:35;;;;;;;16.63;9.63;;;4.40;92.00;;;;;;4901884;29;20110;-88
2022/03/23 07:26:03;;;;;;;15.35;9.77;;;4.40;91.90;;;;;;4886400;29;20113;-86
2022/03/23 07:28:32;;;;;;;16.88;10.23;;;4.60;91.70;;;;;;4882123;29;20055;-87
2022/03/23 07:30:59;;;;;;;13.70;8.82;;;4.60;91.10;;;;;;4896121;29;20065;-87
2022/03/23 07:33:26;;;;;;;15.50;9.10;;;4.70;90.70;;;;;;4901521;29;20076;-86
2022/03/23 07:35:54;;;;;;;15.25;9.30;;;4.80;90.30;;;;;;4893026;29;20053;-87
2022/03/23 07:38:21;;;;;;;13.40;8.60;;;4.80;90.20;;;;;;4894854;29;20049;-88
2022/03/23 07:40:48;;;;;;;15.80;8.77;;;5.10;90.10;;;;;;4890833;29;20120;-89
2022/03/23 07:43:15;;;;;;;14.43;8.80;;;5.20;90.50;;;;;;4888465;29;20060;-88
2022/03/23 07:45:44;;;;;;;14.57;8.85;;;5.20;90.50;;;;;;4883736;29;20136;-88
2022/03/23 07:48:11;;;;;;;15.18;9.18;;;5.30;90.70;;;;;;4883386;29;20136;-88
2022/03/23 07:50:38;;;;;;;16.45;10.25;;;5.30;90.50;;;;;;4882970;29;20135;-88
2022/03/23 07:53:05;;;;;;;14.73;8.93;;;5.40;90.00;;;;;;4882773;29;20057;-88
2022/03/23 07:55:32;;;;;;;12.82;8.52;;;5.50;87.70;;;;;;4883027;29;20136;-87
2022/03/23 07:58:00;;;;;;;12.20;8.00;;;5.60;85.80;;;;;;4883266;29;20139;-86
2022/03/23 08:00:27;;;;;;;13.27;8.85;;;5.80;85.00;;;;;;4882856;29;20057;-86
2022/03/23 08:02:55;;;;;;;14.80;8.90;;;5.80;83.40;;;;;;4883241;29;20163;-87
2022/03/23 08:05:24;;;;;;;14.05;8.90;;;5.80;82.60;;;;;;4885926;29;20049;-88
2022/03/23 08:07:51;;;;;;;12.98;8.18;;;5.90;84.00;;;;;;4881936;29;20414;-88
2022/03/23 08:10:18;;;;;;;13.95;8.50;;;6.00;82.90;;;;;;4881694;29;20064;-86
2022/03/23 08:12:45;;;;;;;14.20;9.00;;;6.10;82.00;;;;;;4881547;29;20091;-86
2022/03/23 08:15:12;;;;;;;12.50;8.52;;;6.20;82.20;;;;;;4882208;29;20080;-87
2022/03/23 08:17:39;;;;;;;16.13;9.70;;;6.30;82.50;;;;;;4897905;29;20045;-87
2022/03/23 08:22:58;;;;;;;16.27;9.25;;;6.50;80.60;;;;;;4896443;29;20060;-88
2022/03/23 08:25:26;;;;;;;13.80;8.40;;;6.60;82.50;;;;;;4907934;29;20087;-87
2022/03/23 08:27:56;;;;;;;15.55;10.68;;;6.70;83.20;;;;;;4908538;29;20104;-86
2022/03/23 08:30:24;;;;;;;18.73;11.35;;;6.80;85.30;;;;;;4900900;29;20143;-87
2022/03/23 08:32:51;;;;;;;15.38;10.10;;;6.90;83.70;;;;;;4900832;29;20119;-88
2022/03/23 08:35:20;;;;;;;19.40;11.00;;;7.00;85.80;;;;;;4900786;29;20139;-87
2022/03/23 08:37:48;;;;;;;19.33;11.55;;;7.00;85.40;;;;;;4899800;29;20473;-87
2022/03/23 08:40:15;;;;;;;18.73;11.38;;;7.20;84.00;;;;;;4901135;29;20056;-88
2022/03/23 08:42:42;;;;;;;18.55;11.10;;;7.30;82.10;;;;;;4899675;29;20059;-84
2022/03/23 08:45:10;;;;;;;17.88;11.13;;;7.40;81.70;;;;;;4900131;29;20457;-84
2022/03/23 08:47:38;;;;;;;17.60;9.90;;;7.50;82.10;;;;;;4910050;29;20104;-87
2022/03/23 08:50:08;;;;;;;15.25;9.60;;;7.70;80.60;;;;;;4912247;29;20116;-87
2022/03/23 08:52:38;;;;;;;14.40;8.75;;;7.80;80.20;;;;;;4900153;29;20056;-87
2022/03/23 08:55:09;;;;;;;14.82;8.90;;;7.90;80.30;;;;;;4900076;29;20479;-87
2022/03/23 08:57:36;;;;;;;14.35;8.68;;;7.90;80.50;;;;;;4899884;29;20053;-86
2022/03/23 09:00:05;;;;;;;13.65;8.88;;;7.90;81.00;;;;;;4899879;29;20135;-84
2022/03/23 09:02:32;;;;;;;12.90;8.52;;;8.00;79.90;;;;;;4900192;29;20063;-86
2022/03/23 09:05:00;;;;;;;14.45;9.35;;;8.20;78.70;;;;;;4900211;29;20075;-84
2022/03/23 09:07:27;;;;;;;14.25;8.95;;;8.30;78.70;;;;;;4900379;29;20471;-86
2022/03/23 09:09:55;;;;;;;13.68;8.65;;;8.40;78.40;;;;;;4899490;29;20135;-86
2022/03/23 09:12:22;;;;;;;14.20;9.48;;;8.40;78.20;;;;;;4900048;29;20139;-86
2022/03/23 09:14:49;;;;;;;17.83;11.35;;;8.50;76.20;;;;;;4899679;29;20184;-87
2022/03/23 09:17:16;;;;;;;16.02;10.02;;;8.70;75.30;;;;;;4900207;29;20131;-87
2022/03/23 09:19:44;;;;;;;17.98;9.93;;;8.80;75.10;;;;;;4916331;29;20059;-87
2022/03/23 09:22:11;;;;;;;14.73;9.23;;;8.90;74.60;;;;;;4908765;29;20055;-86
2022/03/23 09:24:39;;;;;;;17.00;10.90;;;9.00;73.50;;;;;;4899556;29;20139;-87
2022/03/23 09:27:08;;;;;;;17.15;10.85;;;9.20;72.50;;;;;;4898876;29;20060;-86
2022/03/23 09:29:35;;;;;;;14.98;9.88;;;9.40;70.30;;;;;;4899652;29;20473;-86
2022/03/23 09:32:09;;;;;;;15.65;9.10;;;9.40;70.10;;;;;;4896074;29;20401;-86
2022/03/23 09:34:36;;;;;;;13.00;8.50;;;9.40;69.60;;;;;;4899289;29;20053;-85
2022/03/23 09:39:48;;;;;;;12.57;8.07;;;9.60;69.30;;;;;;4899311;29;20108;-86
2022/03/23 09:42:18;;;;;;;12.73;8.50;;;9.80;68.20;;;;;;4899975;29;20126;-86
2022/03/23 09:44:46;;;;;;;11.30;7.95;;;9.80;67.70;;;;;;4899403;29;20064;-85
2022/03/23 09:47:13;;;;;;;12.73;8.43;;;9.90;67.10;;;;;;4899541;29;20422;-86
2022/03/23 09:49:41;;;;;;;11.80;8.10;;;10.00;66.70;;;;;;4899171;29;20139;-84
2022/03/23 09:52:08;;;;;;;12.93;8.57;;;10.00;66.40;;;;;;4899483;29;20091;-87
2022/03/23 09:54:35;;;;;;;16.98;12.02;;;10.20;66.40;;;;;;4899641;29;20135;-86
2022/03/23 09:57:03;;;;;;;15.90;11.23;;;10.50;64.10;;;;;;4898910;29;20476;-86
2022/03/23 09:59:32;;;;;;;17.45;11.90;;;10.60;63.60;;;;;;4913388;29;20056;-88
2022/03/23 10:02:48;;;;;;;14.60;10.23;;;10.80;62.20;;;;;;4901475;29;20084;-84
2022/03/23 10:05:54;;;;;;;16.35;10.50;;;10.90;61.10;;;;;;4918989;29;20091;-85
2022/03/23 10:09:07;;;;;;;16.33;11.52;;;10.80;59.90;;;;;;4917615;29;20050;-86
2022/03/23 10:12:48;;;;;;;20.00;12.07;;;10.80;59.00;;;;;;4901169;29;20481;-85
2022/03/23 10:16:24;;;;;;;14.55;10.20;;;11.20;57.90;;;;;;4898584;29;20055;-88
2022/03/23 10:18:55;;;;;;;14.05;9.65;;;11.20;56.50;;;;;;4880722;29;20136;-86
2022/03/23 10:21:25;;;;;;;14.40;9.23;;;11.20;56.90;;;;;;4880495;29;20139;-86
2022/03/23 10:24:33;;;;;;;14.27;9.60;;;11.20;56.80;;;;;;4879255;29;20116;-85
2022/03/23 10:27:12;;;;;;;15.80;10.23;;;11.30;56.20;;;;;;4880329;29;20052;-87
2022/03/23 10:29:47;;;;;;;14.68;9.50;;;11.30;54.90;;;;;;4880459;29;20053;-86
2022/03/23 10:32:17;;;;;;;14.48;9.98;;;11.40;55.70;;;;;;4879403;29;20060;-79
2022/03/23 10:34:49;;;;;;;9.98;7.07;;;11.50;54.20;;;;;;4878830;29;20045;-80
2022/03/23 10:37:24;;;;;;;11.45;8.23;;;12.20;53.30;;;;;;4882026;29;20140;-85
2022/03/23 10:39:51;;;;;;;15.23;9.55;;;12.20;57.50;;;;;;4905081;29;20063;-84
2022/03/23 10:42:21;;;;;;;12.52;9.00;;;12.30;54.70;;;;;;4921195;29;20138;-78
2022/03/23 10:44:49;;;;;;;11.52;7.95;;;12.50;55.90;;;;;;4918665;29;20048;-82
2022/03/23 10:47:28;;;;;;;12.43;7.38;;;12.60;52.30;;;;;;4920782;29;20139;-84
2022/03/23 10:49:56;;;;;;;11.77;8.52;;;12.50;49.80;;;;;;4920545;29;20055;-82
2022/03/23 10:52:28;;;;;;;12.32;8.95;;;12.50;49.10;;;;;;4920539;29;20119;-85
2022/03/23 10:54:59;;;;;;;13.15;8.52;;;12.40;47.80;;;;;;4919955;29;20055;-86
2022/03/23 10:58:26;;;;;;;10.90;7.95;;;12.40;47.90;;;;;;4924197;29;20079;-84
2022/03/23 11:01:00;;;;;;;10.48;7.15;;;12.50;45.20;;;;;;4920841;29;20475;-84
2022/03/23 11:03:40;;;;;;;11.18;7.55;;;12.60;47.10;;;;;;4914994;29;20480;-81
2022/03/23 11:06:27;;;;;;;12.10;8.73;;;12.80;47.00;;;;;;4900841;29;20080;-83
2022/03/23 11:15:45;;;;;;;12.15;8.85;;;12.80;46.70;;;;;;4901080;29;20168;-83
2022/03/23 11:17:29;;;;;;;14.00;9.50;;;13.20;47.20;;;;;;4902093;29;20115;-85
2022/03/23 11:19:57;;;;;;;12.70;8.40;;;13.40;45.90;;;;;;4916602;29;20055;-86
2022/03/23 11:22:25;;;;;;;10.80;8.02;;;13.40;45.20;;;;;;4887407;29;20112;-85
2022/03/23 11:24:52;;;;;;;11.43;8.57;;;13.50;46.00;;;;;;4900407;29;20143;-84
2022/03/23 11:27:20;;;;;;;11.40;8.30;;;13.50;45.40;;;;;;4911182;29;20087;-84
2022/03/23 11:29:49;;;;;;;11.25;7.95;;;13.50;45.80;;;;;;4922333;29;20074;-85
2022/03/23 11:32:20;;;;;;;11.82;7.80;;;13.50;45.40;;;;;;4909314;29;20549;-85
2022/03/23 11:34:49;;;;;;;10.68;7.60;;;13.80;44.50;;;;;;4902960;29;20056;-85
2022/03/23 11:37:19;;;;;;;10.55;7.50;;;13.90;43.00;;;;;;4904317;29;20048;-84
2022/03/23 11:39:48;;;;;;;10.13;7.57;;;13.80;43.10;;;;;;4904775;29;20096;-84
2022/03/23 11:42:17;;;;;;;11.63;7.35;;;14.00;43.50;;;;;;4911085;29;20155;-85
2022/03/23 11:44:46;;;;;;;14.85;10.10;;;14.00;43.00;;;;;;4925052;29;20056;-85
2022/03/23 11:47:33;;;;;;;10.55;8.20;;;14.10;42.90;;;;;;4918045;29;20056;-85
2022/03/23 11:50:14;;;;;;;12.82;9.15;;;14.40;42.90;;;;;;4919620;29;20139;-84
2022/03/23 11:52:47;;;;;;;10.25;7.82;;;14.20;42.00;;;;;;4919812;29;20048;-82
2022/03/23 11:55:40;;;;;;;12.68;9.55;;;14.40;42.40;;;;;;4920280;29;20087;-85
2022/03/23 11:58:21;;;;;;;10.90;8.10;;;14.60;42.50;;;;;;4920328;29;20056;-83
2022/03/23 12:00:53;;;;;;;10.63;7.82;;;14.70;42.50;;;;;;4918816;29;20409;-81
2022/03/23 12:03:50;;;;;;;9.70;7.18;;;14.80;41.60;;;;;;4913335;29;20053;-84
2022/03/23 12:06:19;;;;;;;10.48;6.80;;;15.00;40.20;;;;;;4900006;29;20112;-85
2022/03/23 12:08:58;;;;;;;9.50;6.35;;;15.10;39.10;;;;;;4899749;29;20499;-84
2022/03/23 12:11:51;;;;;;;11.05;7.45;;;15.30;39.60;;;;;;4898561;29;20064;-84
2022/03/23 12:14:28;;;;;;;12.77;8.70;;;15.30;41.40;;;;;;4899869;29;20223;-84
2022/03/23 12:17:18;;;;;;;12.40;8.90;;;15.30;41.40;;;;;;4899341;29;20140;-83
2022/03/23 12:20:02;;;;;;;11.45;8.60;;;15.50;39.70;;;;;;4900543;29;20063;-84
2022/03/23 12:23:17;;;;;;;11.20;7.63;;;15.70;39.10;;;;;;4899822;29;20415;-83
2022/03/23 12:25:56;;;;;;;12.05;7.72;;;15.80;38.60;;;;;;4898731;29;20490;-84
2022/03/23 12:28:42;;;;;;;10.00;7.40;;;16.00;37.90;;;;;;4898570;29;20431;-83
2022/03/23 12:31:14;;;;;;;9.70;7.07;;;16.00;36.60;;;;;;4906242;29;20048;-88
2022/03/23 12:34:18;;;;;;;10.93;7.95;;;16.20;36.20;;;;;;4916531;29;20052;-84
2022/03/23 12:36:57;;;;;;;10.90;7.88;;;16.30;37.00;;;;;;4865183;29;20133;-84
2022/03/23 12:39:37;;;;;;;13.35;9.07;;;16.50;37.50;;;;;;4860451;29;20519;-89
2022/03/23 12:42:34;;;;;;;12.27;7.80;;;16.90;38.40;;;;;;4885276;29;20060;-79
2022/03/23 12:45:14;;;;;;;10.02;7.65;;;17.10;37.20;;;;;;4864653;29;20494;-79
2022/03/23 12:47:53;;;;;;;9.25;6.85;;;17.20;39.20;;;;;;4896972;29;20057;-77
2022/03/23 12:58:49;;;;;;;12.00;6.22;;;17.60;36.70;;;;;;4896521;29;20052;-82
2022/03/23 13:01:21;;;;;;;10.05;6.60;;;17.90;34.20;;;;;;4896350;29;20060;-80
2022/03/23 13:03:57;;;;;;;9.98;6.65;;;18.00;36.40;;;;;;4897123;29;20104;-80
2022/03/23 13:06:40;;;;;;;8.63;6.40;;;18.20;33.30;;;;;;4897208;29;20485;-84
2022/03/23 13:09:13;;;;;;;9.05;5.72;;;18.30;39.00;;;;;;4897365;29;20084;-86
2022/03/23 13:11:41;;;;;;;8.57;5.72;;;18.50;35.00;;;;;;4898724;29;20067;-87
2022/03/23 13:14:09;;;;;;;7.10;5.40;;;18.30;43.00;;;;;;4899546;29;20100;-86
2022/03/23 13:16:40;;;;;;;8.45;5.95;;;18.40;35.00;;;;;;4898665;29;20471;-86
2022/03/23 13:19:11;;;;;;;10.85;6.95;;;18.60;35.60;;;;;;4898273;29;20055;-86
2022/03/23 13:21:38;;;;;;;9.57;6.93;;;18.50;33.70;;;;;;4913701;29;20052;-85
2022/03/23 13:24:08;;;;;;;9.70;6.60;;;18.10;39.40;;;;;;4896489;29;20140;-85
2022/03/23 13:26:40;;;;;;;8.60;6.43;;;18.00;35.30;;;;;;4900427;29;20459;-86
2022/03/23 13:29:09;;;;;;;9.00;6.18;;;18.20;33.20;;;;;;4900753;29;20136;-86
2022/03/23 13:31:40;;;;;;;10.57;6.75;;;18.40;34.90;;;;;;4902641;29;20083;-86
2022/03/23 13:34:10;;;;;;;8.55;6.43;;;18.70;35.10;;;;;;4901221;29;20088;-87
2022/03/23 13:36:40;;;;;;;9.68;6.47;;;18.60;35.60;;;;;;4900540;29;20088;-86
2022/03/23 13:39:11;;;;;;;8.80;6.88;;;18.70;32.40;;;;;;4901265;29;20056;-88
2022/03/23 13:44:54;;;;;;;;;;;18.90;34.60;;;;;;4900335;29;20139;-88
2022/03/23 13:47:12;;;;;;;11.05;9.00;;;19.80;34.50;;;;;;4898847;29;19923;-86
2022/03/23 13:49:44;;;;;;;12.40;9.10;;;20.00;36.40;;;;;;4899179;29;20056;-88
2022/03/23 13:52:13;;;;;;;12.60;9.38;;;19.80;34.00;;;;;;4906119;29;20092;-86
2022/03/23 13:54:40;;;;;;;26.02;17.65;;;20.00;35.40;;;;;;4908027;29;20116;-88
2022/03/23 13:57:09;;;;;;;15.48;10.90;;;20.90;33.50;;;;;;4899207;29;20116;-86
2022/03/23 13:59:36;;;;;;;12.98;8.43;;;21.30;32.20;;;;;;4898971;29;20052;-86
2022/03/23 14:02:05;;;;;;;10.43;7.68;;;21.60;31.20;;;;;;4898536;29;20561;-85
2022/03/23 14:04:38;;;;;;;11.15;7.95;;;22.20;33.80;;;;;;4912717;29;20044;-87
2022/03/23 14:07:06;;;;;;;12.73;8.20;;;21.70;30.70;;;;;;4898799;29;20071;-84
2022/03/23 14:09:34;;;;;;;11.70;8.55;;;21.90;32.00;;;;;;4913410;29;20056;-86
2022/03/23 14:12:04;;;;;;;9.18;7.40;;;23.30;32.50;;;;;;4898726;29;20120;-86
2022/03/23 14:14:34;;;;;;;9.70;7.60;;;23.60;30.00;;;;;;4930605;28;20043;-86
2022/03/23 14:17:10;;;;;;;10.50;7.65;;;24.10;29.80;;;;;;4918747;29;20072;-86
2022/03/23 14:19:42;;;;;;;10.27;8.05;;;24.50;30.30;;;;;;4903071;29;20562;-85
2022/03/23 14:22:13;;;;;;;11.95;8.60;;;25.40;30.20;;;;;;4897383;29;20092;-86
2022/03/23 14:24:40;;;;;;;10.25;7.57;;;25.50;29.00;;;;;;4898831;29;20091;-84
2022/03/23 14:27:21;;;;;;;9.77;7.22;;;26.30;28.80;;;;;;4898371;29;20140;-86
2022/03/23 14:30:18;;;;;;;9.73;7.68;;;26.50;29.00;;;;;;4898858;29;20056;-86
2022/03/23 14:32:55;;;;;;;11.27;7.13;;;27.20;28.00;;;;;;4898049;29;20105;-87
2022/03/23 14:35:36;;;;;;;8.45;7.03;;;27.20;28.10;;;;;;4898385;29;20049;-86
2022/03/23 14:38:11;;;;;;;7.82;6.13;;;27.80;28.20;;;;;;4896891;29;20049;-86
2022/03/23 14:40:47;;;;;;;8.85;6.43;;;27.70;27.50;;;;;;4898375;29;20060;-88
2022/03/23 14:43:30;;;;;;;7.50;6.65;;;27.40;27.60;;;;;;4899477;29;20139;-86
2022/03/23 14:45:58;;;;;;;7.07;6.10;;;27.60;27.20;;;;;;4900155;29;20088;-84
2022/03/23 14:48:28;;;;;;;8.35;7.07;;;28.30;27.60;;;;;;4898667;29;20489;-84
2022/03/23 14:50:59;;;;;;;8.25;6.57;;;28.10;27.30;;;;;;4899525;29;20471;-84
2022/03/23 14:53:29;;;;;;;7.78;6.15;;;26.70;27.40;;;;;;4899946;29;20120;-85
2022/03/23 14:55:58;;;;;;;8.57;6.32;;;27.80;27.90;;;;;;4905875;29;20053;-85
2022/03/23 14:58:30;;;;;;;8.40;6.70;;;28.40;27.40;;;;;;4905491;29;20585;-88
2022/03/23 15:01:00;;;;;;;7.57;6.20;;;28.40;27.10;;;;;;4923177;29;20052;-87
2022/03/23 15:03:27;;;;;;;8.55;6.13;;;27.50;28.20;;;;;;4930357;29;20052;-85
2022/03/23 15:14:11;;;;;;;7.97;6.30;;;28.90;26.90;;;;;;4917969;29;20437;-87
2022/03/23 15:16:39;;;;;;;7.93;6.22;;;29.90;27.60;;;;;;4917036;29;20052;-85
2022/03/23 15:19:07;;;;;;;7.25;6.22;;;30.10;27.70;;;;;;4916026;29;20044;-86
2022/03/23 15:21:36;;;;;;;8.23;6.10;;;29.00;26.80;;;;;;4917045;29;20143;-87
2022/03/23 15:24:05;;;;;;;10.65;6.25;;;29.50;27.50;;;;;;4922997;29;20139;-87
2022/03/23 15:26:32;;;;;;;7.90;6.88;;;30.40;27.20;;;;;;4918944;29;20565;-87
2022/03/23 15:29:00;;;;;;;8.82;6.82;;;28.60;27.10;;;;;;4919929;29;20084;-87
2022/03/23 15:31:28;;;;;;;7.75;6.30;;;28.40;27.40;;;;;;4919901;29;20052;-87
2022/03/23 15:33:55;;;;;;;7.50;6.22;;;28.00;27.20;;;;;;4919978;29;20080;-86
2022/03/23 15:36:24;;;;;;;9.00;6.35;;;28.70;27.20;;;;;;4919928;29;20136;-86
2022/03/23 15:38:54;;;;;;;8.00;6.47;;;29.20;27.20;;;;;;4919739;29;20311;-87
2022/03/23 15:41:21;;;;;;;7.60;6.45;;;28.90;27.20;;;;;;4919965;29;20155;-88
2022/03/23 15:43:51;;;;;;;8.55;6.57;;;27.50;27.50;;;;;;4921271;29;20095;-86
2022/03/23 15:46:22;;;;;;;8.02;7.22;;;28.60;27.80;;;;;;4908318;29;20384;-87
2022/03/23 15:48:50;;;;;;;9.50;6.88;;;28.40;26.70;;;;;;4898536;29;20106;-85
2022/03/23 15:51:18;;;;;;;8.32;6.68;;;29.20;26.80;;;;;;4897707;29;20562;-86
2022/03/23 15:53:46;;;;;;;8.43;6.97;;;28.40;27.00;;;;;;4898580;29;20065;-86
2022/03/23 15:56:16;;;;;;;8.90;7.18;;;27.80;27.70;;;;;;4898733;29;20056;-85
2022/03/23 15:58:43;;;;;;;8.75;7.68;;;26.90;27.50;;;;;;4898888;29;20140;-87
2022/03/23 16:01:11;;;;;;;9.20;7.20;;;28.00;27.20;;;;;;4897874;29;20136;-84
2022/03/23 16:03:39;;;;;;;7.63;6.82;;;28.80;27.70;;;;;;4882562;29;20132;-86
2022/03/23 16:06:06;;;;;;;7.70;6.60;;;28.00;27.20;;;;;;4881693;29;20512;-87
2022/03/23 16:08:34;;;;;;;8.40;7.30;;;27.90;27.70;;;;;;4878156;29;20149;-88
2022/03/23 16:11:03;;;;;;;9.45;7.07;;;26.20;27.90;;;;;;4883545;29;20423;-87
2022/03/23 16:13:31;;;;;;;9.02;6.85;;;27.10;27.80;;;;;;4898365;29;20139;-85
2022/03/23 16:15:58;;;;;;;7.75;6.82;;;26.90;28.10;;;;;;4893679;29;20148;-81
2022/03/23 16:18:26;;;;;;;8.75;6.72;;;27.50;27.40;;;;;;4879139;29;20537;-83
2022/03/23 16:20:53;;;;;;;8.02;7.03;;;26.30;28.00;;;;;;4881281;29;20499;-83
2022/03/23 16:23:20;;;;;;;8.65;6.78;;;27.00;27.80;;;;;;4895813;29;20136;-84
2022/03/23 16:25:48;;;;;;;9.98;7.43;;;27.80;27.90;;;;;;4897410;29;20057;-82
2022/03/23 16:28:15;;;;;;;8.93;6.78;;;27.80;27.40;;;;;;4897592;29;20147;-85
2022/03/23 16:30:43;;;;;;;10.35;7.75;;;27.30;27.50;;;;;;4896524;29;20139;-83
2022/03/23 16:33:15;;;;;;;8.23;7.13;;;26.80;27.70;;;;;;4897759;29;20053;-83
2022/03/23 16:35:43;;;;;;;7.68;6.82;;;26.90;27.50;;;;;;4897370;29;20064;-82
2022/03/23 16:38:10;;;;;;;9.93;7.43;;;26.90;27.60;;;;;;4897600;29;20143;-86
2022/03/23 16:40:37;;;;;;;9.55;7.47;;;25.00;28.10;;;;;;4897381;29;20056;-82
2022/03/23 16:43:05;;;;;;;8.63;7.03;;;25.50;28.20;;;;;;4898141;29;20225;-84
2022/03/23 16:45:33;;;;;;;10.02;6.78;;;25.40;27.70;;;;;;4880949;29;20570;-84
2022/03/23 16:48:02;;;;;;;8.10;6.50;;;25.30;28.30;;;;;;4896326;29;20062;-82
2022/03/23 16:50:29;;;;;;;9.27;6.60;;;25.90;28.00;;;;;;4895319;29;20060;-83
2022/03/23 16:52:59;;;;;;;8.18;5.90;;;25.70;27.90;;;;;;4887238;29;20148;-84
2022/03/23 16:55:29;;;;;;;7.40;6.43;;;25.30;28.00;;;;;;4878400;29;20072;-83
2022/03/23 16:57:57;;;;;;;8.05;6.65;;;24.90;27.80;;;;;;4878540;29;20151;-84
2022/03/23 17:00:24;;;;;;;7.82;6.40;;;24.60;28.10;;;;;;4878463;29;20065;-84
2022/03/23 17:14:02;;;;;;;8.50;6.85;;;22.20;30.00;;;;;;4895816;29;20131;-84
2022/03/23 17:16:29;;;;;;;9.90;7.25;;;22.10;29.90;;;;;;4895659;29;20595;-82
2022/03/23 17:19:02;;;;;;;10.80;7.35;;;21.70;30.20;;;;;;4896961;29;20099;-83
2022/03/23 17:21:33;;;;;;;9.00;7.18;;;21.50;30.40;;;;;;4896596;29;20512;-82
2022/03/23 17:24:00;;;;;;;9.77;7.00;;;21.30;30.50;;;;;;4909944;29;20048;-84
2022/03/23 17:26:27;;;;;;;9.90;6.80;;;21.10;30.90;;;;;;4904421;29;20081;-82
2022/03/23 17:28:57;;;;;;;8.48;6.72;;;20.50;31.20;;;;;;4906584;29;20094;-83
2022/03/23 17:31:26;;;;;;;8.45;6.93;;;20.30;31.30;;;;;;4896426;29;20076;-84
2022/03/23 17:33:53;;;;;;;11.38;8.40;;;20.00;31.50;;;;;;4896693;29;20084;-83
2022/03/23 17:36:23;;;;;;;9.73;7.63;;;19.80;32.00;;;;;;4896655;29;20203;-86
2022/03/23 17:38:57;;;;;;;10.93;7.30;;;19.60;32.00;;;;;;4895777;29;20048;-82
2022/03/23 17:41:25;;;;;;;9.57;7.05;;;19.40;32.50;;;;;;4895988;29;20063;-85
2022/03/23 17:43:52;;;;;;;11.15;7.20;;;19.10;32.90;;;;;;4889792;29;20044;-85
2022/03/23 17:46:24;;;;;;;10.40;7.00;;;18.70;33.50;;;;;;4896019;29;20388;-85
2022/03/23 17:48:51;;;;;;;9.93;7.13;;;18.50;33.80;;;;;;4892920;29;20059;-87
2022/03/23 17:51:18;;;;;;;9.00;6.30;;;18.50;33.80;;;;;;4894204;29;20060;-85
2022/03/23 17:53:46;;;;;;;10.10;6.85;;;18.40;34.80;;;;;;4897219;29;20056;-85
2022/03/23 17:56:15;;;;;;;11.65;7.05;;;18.10;34.20;;;;;;4897687;29;20108;-84
2022/03/23 17:58:42;;;;;;;10.68;7.28;;;17.70;34.40;;;;;;4897217;29;20184;-85
2022/03/23 18:01:09;;;;;;;10.55;8.20;;;17.50;35.40;;;;;;4894801;29;20476;-84
2022/03/23 18:03:36;;;;;;;9.85;7.13;;;17.50;34.70;;;;;;4896294;29;20774;-84
2022/03/23 18:06:05;;;;;;;10.73;6.72;;;17.50;34.80;;;;;;4895934;29;20044;-84
2022/03/23 18:08:33;;;;;;;9.55;6.40;;;17.50;35.40;;;;;;4897373;29;20032;-86
2022/03/23 18:11:00;;;;;;;9.10;6.25;;;17.10;37.30;;;;;;4896052;29;20511;-86
2022/03/23 18:13:29;;;;;;;11.52;6.80;;;17.10;37.30;;;;;;4896978;29;20067;-79
2022/03/23 18:15:56;;;;;;;11.20;7.57;;;16.90;36.50;;;;;;4908510;29;20099;-87
2022/03/23 18:18:23;;;;;;;9.70;6.55;;;16.60;37.00;;;;;;4913169;29;20056;-84
2022/03/23 18:20:51;;;;;;;8.93;5.88;;;16.60;38.10;;;;;;4902830;29;20460;-82
2022/03/23 18:23:18;;;;;;;8.95;6.05;;;16.60;38.00;;;;;;4896571;29;20143;-83
2022/03/23 18:25:46;;;;;;;9.32;6.13;;;16.60;38.40;;;;;;4898323;29;20131;-83
2022/03/23 18:28:13;;;;;;;9.02;5.50;;;16.40;39.30;;;;;;4897706;29;20056;-82
2022/03/23 18:30:43;;;;;;;8.23;5.90;;;16.20;40.20;;;;;;4898967;29;20076;-86
2022/03/23 18:33:10;;;;;;;8.90;6.05;;;16.00;40.10;;;;;;4898360;29;20048;-80
2022/03/23 18:35:37;;;;;;;7.95;5.85;;;16.00;40.10;;;;;;4899032;29;20056;-82
2022/03/23 18:38:05;;;;;;;9.00;5.43;;;15.80;40.10;;;;;;4897265;29;20048;-85
2022/03/23 18:40:32;;;;;;;9.30;5.78;;;15.80;41.20;;;;;;4900867;29;20041;-84
2022/03/23 18:42:59;;;;;;;10.15;5.72;;;15.60;41.50;;;;;;4901047;29;20184;-81
2022/03/23 18:45:27;;;;;;;9.27;6.65;;;15.70;40.70;;;;;;4894280;29;20414;-81
2022/03/23 18:47:55;;;;;;;10.75;7.00;;;15.50;40.70;;;;;;4892597;29;20466;-82
2022/03/23 18:50:22;;;;;;;11.20;7.00;;;15.30;40.50;;;;;;4891688;29;20052;-81
2022/03/23 18:52:50;;;;;;;11.35;6.75;;;14.70;41.90;;;;;;4893192;29;20132;-82
2022/03/23 18:55:17;;;;;;;10.63;6.53;;;14.80;41.50;;;;;;4893990;29;20143;-83
2022/03/23 18:57:45;;;;;;;9.52;6.57;;;14.60;42.80;;;;;;4897437;29;20397;-85